sensor_id;sensor_type;location;lat;lon;timestamp;P1;durP1;ratioP1;P2;durP2;ratioP2
21657;SDS011;10990;48.174;9.782;2022-12-18T07:54:53;111.67;;;33.67;;
21657;SDS011;10990;48.174;9.782;2022-12-18T07:57:20;100.57;;;29.83;;
21657;SDS011;10990;48.174;9.782;2022-12-18T07:59:47;104.53;;;32.37;;
21657;SDS011;10990;48.174;9.782;2022-12-18T08:02:14;97.17;;;30.20;;
21657;SDS011;10990;48.174;9.782;2022-12-18T08:04:41;90.07;;;29.33;;
21657;SDS011;10990;48.174;9.782;2022-12-18T08:07:07;105.27;;;33.10;;
21657;SDS011;10990;48.174;9.782;2022-12-18T08:09:34;97.40;;;30.70;;
21657;SDS011;10990;48.174;9.782;2022-12-18T08:12:02;93.87;;;29.53;;
21657;SDS011;10990;48.174;9.782;2022-12-18T08:14:29;91.27;;;29.53;;
21657;SDS011;10990;48.174;9.782;2022-12-18T08:16:56;105.23;;;32.63;;
21657;SDS011;10990;48.174;9.782;2022-12-18T08:19:23;108.67;;;32.63;;
21657;SDS011;10990;48.174;9.782;2022-12-18T08:21:50;91.90;;;29.00;;
21657;SDS011;10990;48.174;9.782;2022-12-18T08:24:16;98.27;;;31.50;;
21657;SDS011;10990;48.174;9.782;2022-12-18T08:26:43;103.13;;;33.17;;
21657;SDS011;10990;48.174;9.782;2022-12-18T08:29:11;103.67;;;31.33;;
21657;SDS011;10990;48.174;9.782;2022-12-18T08:31:38;101.27;;;32.37;;
21657;SDS011;10990;48.174;9.782;2022-12-18T08:34:05;107.17;;;31.77;;
21657;SDS011;10990;48.174;9.782;2022-12-18T08:36:31;76.90;;;25.60;;
21657;SDS011;10990;48.174;9.782;2022-12-18T08:38:58;64.40;;;20.53;;
21657;SDS011;10990;48.174;9.782;2022-12-18T08:41:25;63.73;;;21.27;;
21657;SDS011;10990;48.174;9.782;2022-12-18T08:43:52;61.13;;;21.13;;
21657;SDS011;10990;48.174;9.782;2022-12-18T08:46:38;54.93;;;19.73;;
21657;SDS011;10990;48.174;9.782;2022-12-18T08:49:06;66.17;;;21.07;;
21657;SDS011;10990;48.174;9.782;2022-12-18T08:51:33;63.90;;;21.87;;
21657;SDS011;10990;48.174;9.782;2022-12-18T08:54:01;57.20;;;19.03;;
21657;SDS011;10990;48.174;9.782;2022-12-18T08:56:28;61.33;;;21.07;;
21657;SDS011;10990;48.174;9.782;2022-12-18T08:58:55;69.40;;;22.67;;
21657;SDS011;10990;48.174;9.782;2022-12-18T09:01:22;69.80;;;22.23;;
21657;SDS011;10990;48.174;9.782;2022-12-18T09:03:51;59.20;;;20.07;;
21657;SDS011;10990;48.174;9.782;2022-12-18T09:06:18;62.57;;;20.60;;
21657;SDS011;10990;48.174;9.782;2022-12-18T09:08:45;58.07;;;21.13;;
21657;SDS011;10990;48.174;9.782;2022-12-18T09:11:13;67.57;;;22.03;;
21657;SDS011;10990;48.174;9.782;2022-12-18T09:13:42;63.43;;;20.47;;
21657;SDS011;10990;48.174;9.782;2022-12-18T09:16:09;63.20;;;20.93;;
21657;SDS011;10990;48.174;9.782;2022-12-18T09:18:35;61.27;;;19.60;;
21657;SDS011;10990;48.174;9.782;2022-12-18T09:21:08;62.50;;;21.37;;
21657;SDS011;10990;48.174;9.782;2022-12-18T09:23:36;57.13;;;19.57;;
21657;SDS011;10990;48.174;9.782;2022-12-18T09:26:03;55.93;;;18.53;;
21657;SDS011;10990;48.174;9.782;2022-12-18T09:28:30;63.37;;;21.03;;
21657;SDS011;10990;48.174;9.782;2022-12-18T09:30:57;58.63;;;20.60;;
21657;SDS011;10990;48.174;9.782;2022-12-18T09:33:24;58.73;;;20.70;;
21657;SDS011;10990;48.174;9.782;2022-12-18T09:35:50;60.10;;;20.47;;
21657;SDS011;10990;48.174;9.782;2022-12-18T09:38:18;56.57;;;20.13;;
21657;SDS011;10990;48.174;9.782;2022-12-18T09:40:46;60.37;;;20.63;;
21657;SDS011;10990;48.174;9.782;2022-12-18T09:43:15;50.67;;;18.40;;
21657;SDS011;10990;48.174;9.782;2022-12-18T09:45:46;51.33;;;18.63;;
21657;SDS011;10990;48.174;9.782;2022-12-18T09:48:19;52.53;;;18.90;;
21657;SDS011;10990;48.174;9.782;2022-12-18T09:50:50;52.33;;;18.43;;
21657;SDS011;10990;48.174;9.782;2022-12-18T09:53:19;50.23;;;18.23;;
21657;SDS011;10990;48.174;9.782;2022-12-18T09:55:48;49.17;;;17.13;;
21657;SDS011;10990;48.174;9.782;2022-12-18T09:58:19;49.93;;;17.47;;
21657;SDS011;10990;48.174;9.782;2022-12-18T10:00:51;48.33;;;17.33;;
21657;SDS011;10990;48.174;9.782;2022-12-18T10:03:18;46.93;;;16.47;;
21657;SDS011;10990;48.174;9.782;2022-12-18T10:05:47;42.47;;;15.57;;
21657;SDS011;10990;48.174;9.782;2022-12-18T10:08:24;49.27;;;16.80;;
21657;SDS011;10990;48.174;9.782;2022-12-18T10:11:01;52.60;;;18.40;;
21657;SDS011;10990;48.174;9.782;2022-12-18T10:13:49;56.80;;;20.20;;
21657;SDS011;10990;48.174;9.782;2022-12-18T10:16:23;50.77;;;18.50;;
21657;SDS011;10990;48.174;9.782;2022-12-18T10:19:21;51.90;;;17.43;;
21657;SDS011;10990;48.174;9.782;2022-12-18T10:22:02;56.93;;;20.47;;
21657;SDS011;10990;48.174;9.782;2022-12-18T10:24:45;53.70;;;19.00;;
21657;SDS011;10990;48.174;9.782;2022-12-18T10:27:21;55.53;;;18.37;;
21657;SDS011;10990;48.174;9.782;2022-12-18T10:29:50;51.07;;;17.90;;
21657;SDS011;10990;48.174;9.782;2022-12-18T10:32:18;49.33;;;17.13;;
21657;SDS011;10990;48.174;9.782;2022-12-18T10:34:46;52.03;;;18.90;;
21657;SDS011;10990;48.174;9.782;2022-12-18T10:37:15;51.10;;;18.97;;
21657;SDS011;10990;48.174;9.782;2022-12-18T10:39:46;54.00;;;19.30;;
21657;SDS011;10990;48.174;9.782;2022-12-18T10:42:16;55.20;;;18.77;;
21657;SDS011;10990;48.174;9.782;2022-12-18T10:44:44;52.60;;;18.43;;
21657;SDS011;10990;48.174;9.782;2022-12-18T10:47:12;50.00;;;18.03;;
21657;SDS011;10990;48.174;9.782;2022-12-18T10:52:20;49.73;;;18.23;;
21657;SDS011;10990;48.174;9.782;2022-12-18T10:54:50;46.73;;;16.80;;
21657;SDS011;10990;48.174;9.782;2022-12-18T10:57:32;44.20;;;16.73;;
21657;SDS011;10990;48.174;9.782;2022-12-18T11:00:13;43.03;;;15.87;;
21657;SDS011;10990;48.174;9.782;2022-12-18T11:02:48;40.57;;;14.70;;
21657;SDS011;10990;48.174;9.782;2022-12-18T11:05:25;36.93;;;14.13;;
21657;SDS011;10990;48.174;9.782;2022-12-18T11:07:54;40.37;;;14.63;;
21657;SDS011;10990;48.174;9.782;2022-12-18T11:10:23;40.87;;;14.73;;
21657;SDS011;10990;48.174;9.782;2022-12-18T11:12:54;45.00;;;15.80;;
21657;SDS011;10990;48.174;9.782;2022-12-18T11:15:21;40.23;;;15.50;;
21657;SDS011;10990;48.174;9.782;2022-12-18T11:17:53;48.53;;;17.90;;
21657;SDS011;10990;48.174;9.782;2022-12-18T11:20:21;47.90;;;17.43;;
21657;SDS011;10990;48.174;9.782;2022-12-18T11:22:56;43.30;;;17.23;;
21657;SDS011;10990;48.174;9.782;2022-12-18T11:25:28;47.43;;;18.57;;
21657;SDS011;10990;48.174;9.782;2022-12-18T11:27:56;44.23;;;16.67;;
21657;SDS011;10990;48.174;9.782;2022-12-18T11:30:26;44.47;;;16.73;;
21657;SDS011;10990;48.174;9.782;2022-12-18T11:33:02;47.53;;;16.13;;
21657;SDS011;10990;48.174;9.782;2022-12-18T11:35:37;43.33;;;16.30;;
21657;SDS011;10990;48.174;9.782;2022-12-18T11:38:10;43.07;;;15.67;;
21657;SDS011;10990;48.174;9.782;2022-12-18T11:40:45;46.43;;;16.57;;
21657;SDS011;10990;48.174;9.782;2022-12-18T11:43:20;48.27;;;17.73;;
21657;SDS011;10990;48.174;9.782;2022-12-18T11:45:52;48.90;;;18.07;;
21657;SDS011;10990;48.174;9.782;2022-12-18T11:48:23;52.83;;;19.20;;
21657;SDS011;10990;48.174;9.782;2022-12-18T11:50:54;47.50;;;17.97;;
21657;SDS011;10990;48.174;9.782;2022-12-18T11:53:22;49.43;;;18.07;;
21657;SDS011;10990;48.174;9.782;2022-12-18T11:55:55;50.93;;;19.40;;
21657;SDS011;10990;48.174;9.782;2022-12-18T11:58:32;52.23;;;18.63;;
21657;SDS011;10990;48.174;9.782;2022-12-18T12:01:13;51.57;;;18.50;;
21657;SDS011;10990;48.174;9.782;2022-12-18T12:03:51;50.67;;;18.03;;
21657;SDS011;10990;48.174;9.782;2022-12-18T12:06:41;50.15;;;19.05;;
21657;SDS011;10990;48.174;9.782;2022-12-18T12:09:20;51.70;;;18.30;;
21657;SDS011;10990;48.174;9.782;2022-12-18T12:12:10;48.10;;;18.77;;
21657;SDS011;10990;48.174;9.782;2022-12-18T12:14:52;46.27;;;17.47;;
21657;SDS011;10990;48.174;9.782;2022-12-18T12:17:26;49.67;;;17.73;;
21657;SDS011;10990;48.174;9.782;2022-12-18T12:20:05;43.50;;;15.80;;
21657;SDS011;10990;48.174;9.782;2022-12-18T12:22:39;56.87;;;22.13;;
21657;SDS011;10990;48.174;9.782;2022-12-18T12:25:14;55.40;;;22.03;;
21657;SDS011;10990;48.174;9.782;2022-12-18T12:27:56;49.60;;;18.03;;
21657;SDS011;10990;48.174;9.782;2022-12-18T12:30:35;44.93;;;16.57;;
21657;SDS011;10990;48.174;9.782;2022-12-18T12:33:14;41.27;;;14.90;;
21657;SDS011;10990;48.174;9.782;2022-12-18T12:35:53;45.77;;;17.47;;
21657;SDS011;10990;48.174;9.782;2022-12-18T12:38:30;45.60;;;17.23;;
21657;SDS011;10990;48.174;9.782;2022-12-18T12:41:01;42.73;;;16.83;;
21657;SDS011;10990;48.174;9.782;2022-12-18T12:43:34;46.80;;;16.40;;
21657;SDS011;10990;48.174;9.782;2022-12-18T12:46:04;42.70;;;15.87;;
21657;SDS011;10990;48.174;9.782;2022-12-18T12:48:35;41.40;;;15.50;;
21657;SDS011;10990;48.174;9.782;2022-12-18T12:51:08;43.90;;;15.97;;
21657;SDS011;10990;48.174;9.782;2022-12-18T12:53:40;54.77;;;18.73;;
21657;SDS011;10990;48.174;9.782;2022-12-18T12:56:08;49.60;;;18.53;;
21657;SDS011;10990;48.174;9.782;2022-12-18T12:58:41;41.47;;;15.00;;
21657;SDS011;10990;48.174;9.782;2022-12-18T13:01:17;46.97;;;16.40;;
21657;SDS011;10990;48.174;9.782;2022-12-18T13:03:54;45.53;;;16.07;;
21657;SDS011;10990;48.174;9.782;2022-12-18T13:06:33;42.97;;;15.50;;
21657;SDS011;10990;48.174;9.782;2022-12-18T13:09:06;41.90;;;14.70;;
21657;SDS011;10990;48.174;9.782;2022-12-18T13:11:37;51.63;;;16.67;;
21657;SDS011;10990;48.174;9.782;2022-12-18T13:14:26;39.07;;;14.83;;
21657;SDS011;10990;48.174;9.782;2022-12-18T13:17:14;49.40;;;15.83;;
21657;SDS011;10990;48.174;9.782;2022-12-18T13:20:03;39.73;;;13.97;;
21657;SDS011;10990;48.174;9.782;2022-12-18T13:22:34;42.37;;;15.60;;
21657;SDS011;10990;48.174;9.782;2022-12-18T13:25:03;46.80;;;16.00;;
21657;SDS011;10990;48.174;9.782;2022-12-18T13:28:08;44.43;;;15.73;;
21657;SDS011;10990;48.174;9.782;2022-12-18T13:36:13;45.90;;;15.67;;
21657;SDS011;10990;48.174;9.782;2022-12-18T13:41:51;41.20;;;14.40;;
21657;SDS011;10990;48.174;9.782;2022-12-18T13:44:24;46.65;;;18.80;;
21657;SDS011;10990;48.174;9.782;2022-12-18T13:46:56;55.80;;;21.77;;
21657;SDS011;10990;48.174;9.782;2022-12-18T13:49:24;45.83;;;18.13;;
21657;SDS011;10990;48.174;9.782;2022-12-18T13:51:56;51.43;;;17.77;;
21657;SDS011;10990;48.174;9.782;2022-12-18T13:54:25;45.40;;;16.67;;
21657;SDS011;10990;48.174;9.782;2022-12-18T13:56:56;50.40;;;17.50;;
21657;SDS011;10990;48.174;9.782;2022-12-18T13:59:23;43.03;;;16.03;;
21657;SDS011;10990;48.174;9.782;2022-12-18T14:01:52;48.37;;;17.77;;
21657;SDS011;10990;48.174;9.782;2022-12-18T14:04:26;50.17;;;18.03;;
21657;SDS011;10990;48.174;9.782;2022-12-18T14:06:57;49.03;;;18.30;;
21657;SDS011;10990;48.174;9.782;2022-12-18T14:09:31;52.63;;;17.73;;
21657;SDS011;10990;48.174;9.782;2022-12-18T14:12:02;51.23;;;17.47;;
21657;SDS011;10990;48.174;9.782;2022-12-18T14:14:46;53.27;;;18.53;;
21657;SDS011;10990;48.174;9.782;2022-12-18T14:17:15;49.00;;;17.43;;
21657;SDS011;10990;48.174;9.782;2022-12-18T14:19:44;48.97;;;16.33;;
21657;SDS011;10990;48.174;9.782;2022-12-18T14:22:14;54.33;;;18.87;;
21657;SDS011;10990;48.174;9.782;2022-12-18T14:24:43;48.13;;;16.90;;
21657;SDS011;10990;48.174;9.782;2022-12-18T14:29:54;51.93;;;18.60;;
21657;SDS011;10990;48.174;9.782;2022-12-18T14:32:21;50.87;;;16.83;;
21657;SDS011;10990;48.174;9.782;2022-12-18T14:34:50;57.87;;;19.00;;
21657;SDS011;10990;48.174;9.782;2022-12-18T14:37:21;51.10;;;17.20;;
21657;SDS011;10990;48.174;9.782;2022-12-18T14:39:53;53.30;;;19.70;;
21657;SDS011;10990;48.174;9.782;2022-12-18T14:42:23;50.33;;;17.53;;
21657;SDS011;10990;48.174;9.782;2022-12-18T14:47:53;47.90;;;16.53;;
21657;SDS011;10990;48.174;9.782;2022-12-18T14:50:21;60.47;;;19.27;;
21657;SDS011;10990;48.174;9.782;2022-12-18T14:52:48;48.40;;;16.73;;
21657;SDS011;10990;48.174;9.782;2022-12-18T14:55:16;52.03;;;18.40;;
21657;SDS011;10990;48.174;9.782;2022-12-18T14:57:44;48.93;;;16.90;;
21657;SDS011;10990;48.174;9.782;2022-12-18T15:00:15;59.93;;;20.73;;
21657;SDS011;10990;48.174;9.782;2022-12-18T15:02:44;47.53;;;16.87;;
21657;SDS011;10990;48.174;9.782;2022-12-18T15:05:16;47.97;;;17.37;;
21657;SDS011;10990;48.174;9.782;2022-12-18T15:07:46;55.63;;;18.03;;
21657;SDS011;10990;48.174;9.782;2022-12-18T15:10:15;63.27;;;19.83;;
21657;SDS011;10990;48.174;9.782;2022-12-18T15:12:43;59.60;;;18.57;;
21657;SDS011;10990;48.174;9.782;2022-12-18T15:18:13;58.53;;;19.23;;
21657;SDS011;10990;48.174;9.782;2022-12-18T15:20:43;61.93;;;19.63;;
21657;SDS011;10990;48.174;9.782;2022-12-18T15:23:16;61.97;;;20.33;;
21657;SDS011;10990;48.174;9.782;2022-12-18T15:25:45;61.00;;;19.83;;
21657;SDS011;10990;48.174;9.782;2022-12-18T15:28:15;51.70;;;18.07;;
21657;SDS011;10990;48.174;9.782;2022-12-18T15:31:01;57.20;;;18.27;;
21657;SDS011;10990;48.174;9.782;2022-12-18T15:33:31;52.47;;;17.97;;
21657;SDS011;10990;48.174;9.782;2022-12-18T15:36:00;58.10;;;19.03;;
21657;SDS011;10990;48.174;9.782;2022-12-18T15:38:30;65.20;;;20.63;;
21657;SDS011;10990;48.174;9.782;2022-12-18T15:40:57;61.30;;;19.73;;
21657;SDS011;10990;48.174;9.782;2022-12-18T15:43:24;60.27;;;20.87;;
21657;SDS011;10990;48.174;9.782;2022-12-18T15:46:01;59.57;;;20.17;;
21657;SDS011;10990;48.174;9.782;2022-12-18T15:48:28;54.27;;;18.73;;
21657;SDS011;10990;48.174;9.782;2022-12-18T15:50:56;62.20;;;19.77;;
21657;SDS011;10990;48.174;9.782;2022-12-18T15:53:24;55.90;;;17.93;;
21657;SDS011;10990;48.174;9.782;2022-12-18T15:55:55;53.70;;;18.17;;
21657;SDS011;10990;48.174;9.782;2022-12-18T15:58:39;49.60;;;17.27;;
21657;SDS011;10990;48.174;9.782;2022-12-18T16:01:07;54.27;;;18.23;;
21657;SDS011;10990;48.174;9.782;2022-12-18T16:03:35;53.53;;;18.47;;
21657;SDS011;10990;48.174;9.782;2022-12-18T16:06:01;58.57;;;19.63;;
21657;SDS011;10990;48.174;9.782;2022-12-18T16:08:28;53.90;;;18.80;;
21657;SDS011;10990;48.174;9.782;2022-12-18T16:10:57;51.93;;;18.50;;
21657;SDS011;10990;48.174;9.782;2022-12-18T16:13:24;56.07;;;18.83;;
21657;SDS011;10990;48.174;9.782;2022-12-18T16:15:51;60.53;;;19.50;;
21657;SDS011;10990;48.174;9.782;2022-12-18T16:18:17;65.40;;;21.40;;
21657;SDS011;10990;48.174;9.782;2022-12-18T16:20:44;57.07;;;19.53;;
21657;SDS011;10990;48.174;9.782;2022-12-18T16:23:11;55.70;;;20.30;;
21657;SDS011;10990;48.174;9.782;2022-12-18T16:25:38;56.43;;;19.93;;
21657;SDS011;10990;48.174;9.782;2022-12-18T16:28:06;59.70;;;19.80;;
21657;SDS011;10990;48.174;9.782;2022-12-18T16:30:32;61.13;;;21.20;;
21657;SDS011;10990;48.174;9.782;2022-12-18T16:32:59;58.90;;;20.80;;
21657;SDS011;10990;48.174;9.782;2022-12-18T16:35:26;58.27;;;19.57;;
21657;SDS011;10990;48.174;9.782;2022-12-18T16:37:53;57.17;;;19.33;;
21657;SDS011;10990;48.174;9.782;2022-12-18T16:40:20;59.70;;;18.80;;
21657;SDS011;10990;48.174;9.782;2022-12-18T16:42:47;54.10;;;18.67;;
21657;SDS011;10990;48.174;9.782;2022-12-18T16:45:15;59.07;;;18.30;;
21657;SDS011;10990;48.174;9.782;2022-12-18T16:47:43;56.07;;;18.57;;
21657;SDS011;10990;48.174;9.782;2022-12-18T16:50:10;62.10;;;20.37;;
21657;SDS011;10990;48.174;9.782;2022-12-18T16:52:38;68.77;;;20.87;;
21657;SDS011;10990;48.174;9.782;2022-12-18T16:55:06;60.53;;;19.90;;
21657;SDS011;10990;48.174;9.782;2022-12-18T16:57:34;61.33;;;21.00;;
21657;SDS011;10990;48.174;9.782;2022-12-18T17:00:01;66.07;;;22.60;;
21657;SDS011;10990;48.174;9.782;2022-12-18T17:02:29;59.47;;;21.03;;
21657;SDS011;10990;48.174;9.782;2022-12-18T17:04:56;56.07;;;20.57;;
21657;SDS011;10990;48.174;9.782;2022-12-18T17:07:23;65.13;;;22.17;;
21657;SDS011;10990;48.174;9.782;2022-12-18T17:09:51;74.43;;;24.50;;
21657;SDS011;10990;48.174;9.782;2022-12-18T17:12:18;68.87;;;22.43;;
21657;SDS011;10990;48.174;9.782;2022-12-18T17:14:45;69.43;;;22.47;;
21657;SDS011;10990;48.174;9.782;2022-12-18T17:17:11;66.30;;;21.87;;
21657;SDS011;10990;48.174;9.782;2022-12-18T17:19:39;74.37;;;24.00;;
21657;SDS011;10990;48.174;9.782;2022-12-18T17:22:06;63.17;;;21.83;;
21657;SDS011;10990;48.174;9.782;2022-12-18T17:24:33;62.77;;;20.70;;
21657;SDS011;10990;48.174;9.782;2022-12-18T17:27:00;63.77;;;20.43;;
21657;SDS011;10990;48.174;9.782;2022-12-18T17:29:27;63.07;;;20.73;;
21657;SDS011;10990;48.174;9.782;2022-12-18T17:31:54;65.50;;;20.07;;
21657;SDS011;10990;48.174;9.782;2022-12-18T17:34:22;60.10;;;19.90;;
21657;SDS011;10990;48.174;9.782;2022-12-18T17:36:50;58.00;;;19.17;;
21657;SDS011;10990;48.174;9.782;2022-12-18T17:39:18;63.40;;;20.10;;
21657;SDS011;10990;48.174;9.782;2022-12-18T17:41:46;67.90;;;19.67;;
21657;SDS011;10990;48.174;9.782;2022-12-18T17:44:13;64.47;;;19.77;;
21657;SDS011;10990;48.174;9.782;2022-12-18T17:46:40;58.77;;;19.57;;
21657;SDS011;10990;48.174;9.782;2022-12-18T17:49:08;61.80;;;20.03;;
21657;SDS011;10990;48.174;9.782;2022-12-18T17:51:35;66.37;;;18.87;;
21657;SDS011;10990;48.174;9.782;2022-12-18T17:54:03;74.27;;;23.63;;
21657;SDS011;10990;48.174;9.782;2022-12-18T17:56:30;82.57;;;26.43;;
21657;SDS011;10990;48.174;9.782;2022-12-18T17:58:57;95.10;;;29.43;;
21657;SDS011;10990;48.174;9.782;2022-12-18T18:01:25;80.60;;;26.03;;
21657;SDS011;10990;48.174;9.782;2022-12-18T18:03:51;74.30;;;23.03;;
21657;SDS011;10990;48.174;9.782;2022-12-18T18:06:20;75.57;;;23.47;;
21657;SDS011;10990;48.174;9.782;2022-12-18T18:08:47;65.83;;;20.37;;
21657;SDS011;10990;48.174;9.782;2022-12-18T18:11:16;74.33;;;21.63;;
21657;SDS011;10990;48.174;9.782;2022-12-18T18:14:01;67.13;;;19.07;;
21657;SDS011;10990;48.174;9.782;2022-12-18T18:16:31;62.40;;;18.87;;
21657;SDS011;10990;48.174;9.782;2022-12-18T18:19:00;60.23;;;18.80;;
21657;SDS011;10990;48.174;9.782;2022-12-18T18:21:28;72.17;;;21.23;;
21657;SDS011;10990;48.174;9.782;2022-12-18T18:23:57;73.37;;;20.73;;
21657;SDS011;10990;48.174;9.782;2022-12-18T18:26:27;65.00;;;19.67;;
21657;SDS011;10990;48.174;9.782;2022-12-18T18:28:55;68.13;;;20.07;;
21657;SDS011;10990;48.174;9.782;2022-12-18T18:31:25;62.90;;;19.40;;
21657;SDS011;10990;48.174;9.782;2022-12-18T18:33:52;68.97;;;21.07;;
21657;SDS011;10990;48.174;9.782;2022-12-18T18:36:21;63.53;;;19.07;;
21657;SDS011;10990;48.174;9.782;2022-12-18T18:38:48;67.80;;;19.50;;
21657;SDS011;10990;48.174;9.782;2022-12-18T18:41:16;74.00;;;22.13;;
21657;SDS011;10990;48.174;9.782;2022-12-18T18:43:45;79.33;;;22.47;;
21657;SDS011;10990;48.174;9.782;2022-12-18T18:46:13;85.07;;;23.37;;
21657;SDS011;10990;48.174;9.782;2022-12-18T18:48:40;73.70;;;21.90;;
21657;SDS011;10990;48.174;9.782;2022-12-18T18:51:08;66.40;;;21.77;;
21657;SDS011;10990;48.174;9.782;2022-12-18T18:53:37;62.67;;;20.93;;
21657;SDS011;10990;48.174;9.782;2022-12-18T18:56:06;67.30;;;21.20;;
21657;SDS011;10990;48.174;9.782;2022-12-18T18:58:33;72.20;;;22.60;;
21657;SDS011;10990;48.174;9.782;2022-12-18T19:01:03;71.60;;;22.73;;
21657;SDS011;10990;48.174;9.782;2022-12-18T19:03:31;62.93;;;21.13;;
21657;SDS011;10990;48.174;9.782;2022-12-18T19:05:58;64.07;;;18.83;;
21657;SDS011;10990;48.174;9.782;2022-12-18T19:08:27;70.50;;;21.37;;
21657;SDS011;10990;48.174;9.782;2022-12-18T19:10:56;79.70;;;24.23;;
21657;SDS011;10990;48.174;9.782;2022-12-18T19:13:25;81.63;;;24.50;;
21657;SDS011;10990;48.174;9.782;2022-12-18T19:15:54;75.83;;;22.67;;
21657;SDS011;10990;48.174;9.782;2022-12-18T19:18:23;67.73;;;21.83;;
21657;SDS011;10990;48.174;9.782;2022-12-18T19:20:53;82.13;;;23.90;;
21657;SDS011;10990;48.174;9.782;2022-12-18T19:23:21;75.10;;;22.87;;
21657;SDS011;10990;48.174;9.782;2022-12-18T19:25:48;73.53;;;23.20;;
21657;SDS011;10990;48.174;9.782;2022-12-18T19:28:15;72.53;;;21.80;;
21657;SDS011;10990;48.174;9.782;2022-12-18T19:30:42;69.33;;;21.17;;
21657;SDS011;10990;48.174;9.782;2022-12-18T19:33:09;69.67;;;20.33;;
21657;SDS011;10990;48.174;9.782;2022-12-18T19:35:38;72.90;;;22.33;;
21657;SDS011;10990;48.174;9.782;2022-12-18T19:38:05;74.47;;;21.10;;
21657;SDS011;10990;48.174;9.782;2022-12-18T19:40:32;73.63;;;21.00;;
21657;SDS011;10990;48.174;9.782;2022-12-18T19:42:58;71.33;;;20.13;;
21657;SDS011;10990;48.174;9.782;2022-12-18T19:45:26;74.37;;;21.00;;
21657;SDS011;10990;48.174;9.782;2022-12-18T19:47:53;76.60;;;20.40;;
21657;SDS011;10990;48.174;9.782;2022-12-18T19:50:19;66.33;;;20.37;;
21657;SDS011;10990;48.174;9.782;2022-12-18T19:52:47;76.80;;;20.47;;
21657;SDS011;10990;48.174;9.782;2022-12-18T19:55:14;72.13;;;21.20;;
21657;SDS011;10990;48.174;9.782;2022-12-18T19:57:41;76.47;;;21.17;;
21657;SDS011;10990;48.174;9.782;2022-12-18T20:00:09;86.90;;;24.77;;
21657;SDS011;10990;48.174;9.782;2022-12-18T20:02:37;104.37;;;29.90;;
21657;SDS011;10990;48.174;9.782;2022-12-18T20:05:05;86.63;;;24.43;;
21657;SDS011;10990;48.174;9.782;2022-12-18T20:07:34;80.40;;;23.30;;
21657;SDS011;10990;48.174;9.782;2022-12-18T20:10:02;81.57;;;23.03;;
21657;SDS011;10990;48.174;9.782;2022-12-18T20:12:30;75.73;;;22.03;;
21657;SDS011;10990;48.174;9.782;2022-12-18T20:14:57;80.80;;;22.53;;
21657;SDS011;10990;48.174;9.782;2022-12-18T20:17:24;147.57;;;47.50;;
21657;SDS011;10990;48.174;9.782;2022-12-18T20:19:51;169.43;;;54.43;;
21657;SDS011;10990;48.174;9.782;2022-12-18T20:22:18;121.30;;;39.53;;
21657;SDS011;10990;48.174;9.782;2022-12-18T20:24:44;94.17;;;28.23;;
21657;SDS011;10990;48.174;9.782;2022-12-18T20:27:12;102.33;;;33.50;;
21657;SDS011;10990;48.174;9.782;2022-12-18T20:29:39;116.60;;;40.07;;
21657;SDS011;10990;48.174;9.782;2022-12-18T20:32:07;95.30;;;32.30;;
21657;SDS011;10990;48.174;9.782;2022-12-18T20:34:34;101.23;;;31.80;;
21657;SDS011;10990;48.174;9.782;2022-12-18T20:37:01;82.73;;;27.20;;
21657;SDS011;10990;48.174;9.782;2022-12-18T20:39:28;94.10;;;26.70;;
21657;SDS011;10990;48.174;9.782;2022-12-18T20:41:55;90.67;;;28.57;;
21657;SDS011;10990;48.174;9.782;2022-12-18T20:44:23;122.83;;;40.63;;
21657;SDS011;10990;48.174;9.782;2022-12-18T20:46:51;100.40;;;32.67;;
21657;SDS011;10990;48.174;9.782;2022-12-18T20:49:18;96.53;;;28.40;;
21657;SDS011;10990;48.174;9.782;2022-12-18T20:51:48;84.10;;;24.80;;
21657;SDS011;10990;48.174;9.782;2022-12-18T20:54:16;82.20;;;24.90;;
21657;SDS011;10990;48.174;9.782;2022-12-18T20:56:44;91.63;;;25.10;;
21657;SDS011;10990;48.174;9.782;2022-12-18T20:59:11;77.70;;;23.00;;
21657;SDS011;10990;48.174;9.782;2022-12-18T21:01:39;85.00;;;23.27;;
21657;SDS011;10990;48.174;9.782;2022-12-18T21:04:06;85.70;;;24.90;;
21657;SDS011;10990;48.174;9.782;2022-12-18T21:06:33;84.57;;;23.97;;
21657;SDS011;10990;48.174;9.782;2022-12-18T21:09:00;91.63;;;24.57;;
21657;SDS011;10990;48.174;9.782;2022-12-18T21:11:28;87.63;;;25.27;;
21657;SDS011;10990;48.174;9.782;2022-12-18T21:14:14;84.30;;;23.73;;
21657;SDS011;10990;48.174;9.782;2022-12-18T21:16:44;88.67;;;25.87;;
21657;SDS011;10990;48.174;9.782;2022-12-18T21:19:14;85.23;;;24.73;;
21657;SDS011;10990;48.174;9.782;2022-12-18T21:21:42;89.60;;;25.60;;
21657;SDS011;10990;48.174;9.782;2022-12-18T21:24:09;79.90;;;24.40;;
21657;SDS011;10990;48.174;9.782;2022-12-18T21:26:37;97.83;;;26.47;;
21657;SDS011;10990;48.174;9.782;2022-12-18T21:29:09;94.27;;;26.07;;
21657;SDS011;10990;48.174;9.782;2022-12-18T21:31:37;86.63;;;24.97;;
21657;SDS011;10990;48.174;9.782;2022-12-18T21:34:06;91.70;;;26.77;;
21657;SDS011;10990;48.174;9.782;2022-12-18T21:36:35;93.00;;;26.33;;
21657;SDS011;10990;48.174;9.782;2022-12-18T21:39:02;90.77;;;25.43;;
21657;SDS011;10990;48.174;9.782;2022-12-18T21:41:28;85.93;;;25.17;;
21657;SDS011;10990;48.174;9.782;2022-12-18T21:44:14;90.20;;;25.53;;
21657;SDS011;10990;48.174;9.782;2022-12-18T21:46:42;97.83;;;25.87;;
21657;SDS011;10990;48.174;9.782;2022-12-18T21:49:11;97.27;;;26.37;;
21657;SDS011;10990;48.174;9.782;2022-12-18T21:51:41;90.37;;;25.13;;
21657;SDS011;10990;48.174;9.782;2022-12-18T21:54:08;98.03;;;26.93;;
21657;SDS011;10990;48.174;9.782;2022-12-18T21:56:41;96.63;;;27.30;;
21657;SDS011;10990;48.174;9.782;2022-12-18T21:59:11;88.77;;;26.10;;
21657;SDS011;10990;48.174;9.782;2022-12-18T22:01:38;96.20;;;25.23;;
21657;SDS011;10990;48.174;9.782;2022-12-18T22:04:05;95.17;;;26.80;;
21657;SDS011;10990;48.174;9.782;2022-12-18T22:06:33;100.77;;;26.63;;
21657;SDS011;10990;48.174;9.782;2022-12-18T22:09:00;94.23;;;26.13;;
21657;SDS011;10990;48.174;9.782;2022-12-18T22:11:27;103.53;;;26.23;;
21657;SDS011;10990;48.174;9.782;2022-12-18T22:13:53;103.57;;;27.97;;
21657;SDS011;10990;48.174;9.782;2022-12-18T22:16:20;93.40;;;26.37;;
21657;SDS011;10990;48.174;9.782;2022-12-18T22:18:47;94.37;;;26.80;;
21657;SDS011;10990;48.174;9.782;2022-12-18T22:21:20;105.70;;;28.53;;
21657;SDS011;10990;48.174;9.782;2022-12-18T22:23:53;90.93;;;26.37;;
21657;SDS011;10990;48.174;9.782;2022-12-18T22:26:21;93.30;;;25.33;;
21657;SDS011;10990;48.174;9.782;2022-12-18T22:28:49;110.37;;;28.53;;
21657;SDS011;10990;48.174;9.782;2022-12-18T22:31:34;110.03;;;28.87;;
21657;SDS011;10990;48.174;9.782;2022-12-18T22:34:01;101.37;;;27.53;;
21657;SDS011;10990;48.174;9.782;2022-12-18T22:36:31;104.07;;;27.10;;
21657;SDS011;10990;48.174;9.782;2022-12-18T22:39:02;100.93;;;26.43;;
21657;SDS011;10990;48.174;9.782;2022-12-18T22:41:29;111.90;;;30.27;;
21657;SDS011;10990;48.174;9.782;2022-12-18T22:43:56;104.13;;;27.47;;
21657;SDS011;10990;48.174;9.782;2022-12-18T22:46:23;105.33;;;28.40;;
21657;SDS011;10990;48.174;9.782;2022-12-18T22:48:51;110.67;;;28.60;;
21657;SDS011;10990;48.174;9.782;2022-12-18T22:51:18;118.77;;;30.50;;